sensor_id;sensor_type;location;lat;lon;timestamp;P1;durP1;ratioP1;P2;durP2;ratioP2
50821;SDS011;36794;51.212;6.980;2023-03-16T00:00:52;9.77;;;2.90;;
50821;SDS011;36794;51.212;6.980;2023-03-16T00:03:18;8.03;;;3.40;;
50821;SDS011;36794;51.212;6.980;2023-03-16T00:05:52;7.23;;;3.00;;
50821;SDS011;36794;51.212;6.980;2023-03-16T00:08:18;6.22;;;3.10;;
50821;SDS011;36794;51.212;6.980;2023-03-16T00:10:45;8.33;;;3.57;;
50821;SDS011;36794;51.212;6.980;2023-03-16T00:13:15;6.80;;;3.37;;
50821;SDS011;36794;51.212;6.980;2023-03-16T00:15:48;8.67;;;3.50;;
50821;SDS011;36794;51.212;6.980;2023-03-16T00:18:15;8.30;;;3.77;;
50821;SDS011;36794;51.212;6.980;2023-03-16T00:20:40;7.00;;;3.30;;
50821;SDS011;36794;51.212;6.980;2023-03-16T00:23:06;5.43;;;2.90;;
50821;SDS011;36794;51.212;6.980;2023-03-16T00:25:32;8.93;;;3.37;;
50821;SDS011;36794;51.212;6.980;2023-03-16T00:27:59;12.17;;;3.80;;
50821;SDS011;36794;51.212;6.980;2023-03-16T00:30:27;5.43;;;2.60;;
50821;SDS011;36794;51.212;6.980;2023-03-16T00:32:53;4.97;;;3.00;;
50821;SDS011;36794;51.212;6.980;2023-03-16T00:35:19;7.43;;;3.07;;
50821;SDS011;36794;51.212;6.980;2023-03-16T00:37:45;9.70;;;4.37;;
50821;SDS011;36794;51.212;6.980;2023-03-16T00:40:11;7.87;;;3.27;;
50821;SDS011;36794;51.212;6.980;2023-03-16T00:42:37;8.13;;;3.33;;
50821;SDS011;36794;51.212;6.980;2023-03-16T00:45:03;8.17;;;3.13;;
50821;SDS011;36794;51.212;6.980;2023-03-16T00:47:30;5.80;;;2.93;;
50821;SDS011;36794;51.212;6.980;2023-03-16T00:49:56;6.27;;;3.13;;
50821;SDS011;36794;51.212;6.980;2023-03-16T00:52:22;5.07;;;2.60;;
50821;SDS011;36794;51.212;6.980;2023-03-16T00:54:51;5.93;;;3.27;;
50821;SDS011;36794;51.212;6.980;2023-03-16T00:57:17;6.47;;;2.60;;
50821;SDS011;36794;51.212;6.980;2023-03-16T00:59:43;7.70;;;3.13;;
50821;SDS011;36794;51.212;6.980;2023-03-16T01:02:09;8.03;;;3.47;;
50821;SDS011;36794;51.212;6.980;2023-03-16T01:04:36;4.47;;;2.43;;
50821;SDS011;36794;51.212;6.980;2023-03-16T01:07:04;8.17;;;3.03;;
50821;SDS011;36794;51.212;6.980;2023-03-16T01:09:30;6.83;;;2.60;;
50821;SDS011;36794;51.212;6.980;2023-03-16T01:12:00;7.80;;;2.83;;
50821;SDS011;36794;51.212;6.980;2023-03-16T01:14:27;4.57;;;2.57;;
50821;SDS011;36794;51.212;6.980;2023-03-16T01:16:53;7.97;;;2.60;;
50821;SDS011;36794;51.212;6.980;2023-03-16T01:19:19;5.50;;;2.30;;
50821;SDS011;36794;51.212;6.980;2023-03-16T01:21:46;5.87;;;2.70;;
50821;SDS011;36794;51.212;6.980;2023-03-16T01:24:12;4.80;;;2.57;;
50821;SDS011;36794;51.212;6.980;2023-03-16T01:26:39;5.10;;;3.00;;
50821;SDS011;36794;51.212;6.980;2023-03-16T01:29:05;9.07;;;3.63;;
50821;SDS011;36794;51.212;6.980;2023-03-16T01:31:31;6.07;;;2.93;;
50821;SDS011;36794;51.212;6.980;2023-03-16T01:33:57;6.90;;;2.93;;
50821;SDS011;36794;51.212;6.980;2023-03-16T01:36:22;5.13;;;2.63;;
50821;SDS011;36794;51.212;6.980;2023-03-16T01:38:48;9.57;;;2.97;;
50821;SDS011;36794;51.212;6.980;2023-03-16T01:41:15;6.50;;;3.13;;
50821;SDS011;36794;51.212;6.980;2023-03-16T01:43:41;4.63;;;2.43;;
50821;SDS011;36794;51.212;6.980;2023-03-16T01:46:21;5.70;;;2.53;;
50821;SDS011;36794;51.212;6.980;2023-03-16T01:54:22;4.87;;;2.77;;
50821;SDS011;36794;51.212;6.980;2023-03-16T01:56:55;6.70;;;2.60;;
50821;SDS011;36794;51.212;6.980;2023-03-16T01:59:23;4.27;;;2.20;;
50821;SDS011;36794;51.212;6.980;2023-03-16T02:01:50;6.97;;;2.77;;
50821;SDS011;36794;51.212;6.980;2023-03-16T02:04:25;6.77;;;2.67;;
50821;SDS011;36794;51.212;6.980;2023-03-16T02:06:53;6.47;;;2.60;;
50821;SDS011;36794;51.212;6.980;2023-03-16T02:09:19;7.87;;;2.43;;
50821;SDS011;36794;51.212;6.980;2023-03-16T02:11:46;6.53;;;2.63;;
50821;SDS011;36794;51.212;6.980;2023-03-16T02:14:12;4.97;;;2.00;;
50821;SDS011;36794;51.212;6.980;2023-03-16T02:16:38;5.47;;;2.07;;
50821;SDS011;36794;51.212;6.980;2023-03-16T02:19:10;3.93;;;2.33;;
50821;SDS011;36794;51.212;6.980;2023-03-16T02:21:47;5.43;;;2.10;;
50821;SDS011;36794;51.212;6.980;2023-03-16T02:24:18;7.10;;;2.17;;
50821;SDS011;36794;51.212;6.980;2023-03-16T02:26:55;6.50;;;2.03;;
50821;SDS011;36794;51.212;6.980;2023-03-16T02:29:27;3.97;;;2.27;;
50821;SDS011;36794;51.212;6.980;2023-03-16T02:31:55;4.00;;;1.73;;
50821;SDS011;36794;51.212;6.980;2023-03-16T02:34:22;5.93;;;2.17;;
50821;SDS011;36794;51.212;6.980;2023-03-16T02:36:48;5.20;;;2.20;;
50821;SDS011;36794;51.212;6.980;2023-03-16T02:39:16;5.83;;;2.30;;
50821;SDS011;36794;51.212;6.980;2023-03-16T02:41:42;3.67;;;2.27;;
50821;SDS011;36794;51.212;6.980;2023-03-16T02:44:09;4.47;;;1.90;;
50821;SDS011;36794;51.212;6.980;2023-03-16T02:46:39;5.20;;;2.20;;
50821;SDS011;36794;51.212;6.980;2023-03-16T02:49:14;4.67;;;2.10;;
50821;SDS011;36794;51.212;6.980;2023-03-16T02:51:43;6.83;;;2.23;;
50821;SDS011;36794;51.212;6.980;2023-03-16T02:54:10;5.83;;;2.20;;
50821;SDS011;36794;51.212;6.980;2023-03-16T02:56:36;6.47;;;2.40;;
50821;SDS011;36794;51.212;6.980;2023-03-16T02:59:02;3.63;;;2.10;;
50821;SDS011;36794;51.212;6.980;2023-03-16T03:01:29;6.60;;;2.50;;
50821;SDS011;36794;51.212;6.980;2023-03-16T03:03:56;6.27;;;2.40;;
50821;SDS011;36794;51.212;6.980;2023-03-16T03:06:22;5.00;;;2.10;;
50821;SDS011;36794;51.212;6.980;2023-03-16T03:08:49;4.70;;;2.07;;
50821;SDS011;36794;51.212;6.980;2023-03-16T03:11:15;3.50;;;2.20;;
50821;SDS011;36794;51.212;6.980;2023-03-16T03:13:43;5.63;;;2.27;;
50821;SDS011;36794;51.212;6.980;2023-03-16T03:16:09;6.00;;;2.20;;
50821;SDS011;36794;51.212;6.980;2023-03-16T03:18:35;3.63;;;1.93;;
50821;SDS011;36794;51.212;6.980;2023-03-16T03:21:01;4.60;;;2.60;;
50821;SDS011;36794;51.212;6.980;2023-03-16T03:23:27;5.97;;;2.30;;
50821;SDS011;36794;51.212;6.980;2023-03-16T03:25:56;5.10;;;2.20;;
50821;SDS011;36794;51.212;6.980;2023-03-16T03:28:22;5.57;;;2.60;;
50821;SDS011;36794;51.212;6.980;2023-03-16T03:30:48;4.57;;;2.17;;
50821;SDS011;36794;51.212;6.980;2023-03-16T03:33:14;4.50;;;2.00;;
50821;SDS011;36794;51.212;6.980;2023-03-16T03:35:40;5.87;;;2.87;;
50821;SDS011;36794;51.212;6.980;2023-03-16T03:38:06;4.27;;;2.50;;
50821;SDS011;36794;51.212;6.980;2023-03-16T03:40:32;5.57;;;2.33;;
50821;SDS011;36794;51.212;6.980;2023-03-16T03:42:58;7.80;;;2.37;;
50821;SDS011;36794;51.212;6.980;2023-03-16T03:45:25;4.97;;;2.33;;
50821;SDS011;36794;51.212;6.980;2023-03-16T03:47:51;4.80;;;1.87;;
50821;SDS011;36794;51.212;6.980;2023-03-16T03:50:19;5.27;;;2.00;;
50821;SDS011;36794;51.212;6.980;2023-03-16T03:52:45;4.17;;;2.13;;
50821;SDS011;36794;51.212;6.980;2023-03-16T03:55:11;7.20;;;2.70;;
50821;SDS011;36794;51.212;6.980;2023-03-16T03:57:37;5.73;;;2.50;;
50821;SDS011;36794;51.212;6.980;2023-03-16T04:00:04;6.70;;;2.27;;
50821;SDS011;36794;51.212;6.980;2023-03-16T04:02:37;6.57;;;2.60;;
50821;SDS011;36794;51.212;6.980;2023-03-16T04:05:04;5.13;;;2.37;;
50821;SDS011;36794;51.212;6.980;2023-03-16T04:07:30;5.33;;;2.60;;
50821;SDS011;36794;51.212;6.980;2023-03-16T04:09:56;8.27;;;3.43;;
50821;SDS011;36794;51.212;6.980;2023-03-16T04:12:22;7.80;;;2.73;;
50821;SDS011;36794;51.212;6.980;2023-03-16T04:14:48;7.83;;;2.40;;
50821;SDS011;36794;51.212;6.980;2023-03-16T04:17:14;4.73;;;2.90;;
50821;SDS011;36794;51.212;6.980;2023-03-16T04:19:39;5.60;;;2.70;;
50821;SDS011;36794;51.212;6.980;2023-03-16T04:22:05;6.97;;;2.60;;
50821;SDS011;36794;51.212;6.980;2023-03-16T04:24:32;7.17;;;3.17;;
50821;SDS011;36794;51.212;6.980;2023-03-16T04:27:04;5.67;;;2.90;;
50821;SDS011;36794;51.212;6.980;2023-03-16T04:29:30;4.00;;;2.70;;
50821;SDS011;36794;51.212;6.980;2023-03-16T04:31:56;6.07;;;2.83;;
50821;SDS011;36794;51.212;6.980;2023-03-16T04:34:22;8.23;;;3.27;;
50821;SDS011;36794;51.212;6.980;2023-03-16T04:36:49;6.53;;;2.93;;
50821;SDS011;36794;51.212;6.980;2023-03-16T04:39:16;15.20;;;3.30;;
50821;SDS011;36794;51.212;6.980;2023-03-16T04:41:42;6.70;;;3.23;;
50821;SDS011;36794;51.212;6.980;2023-03-16T04:44:08;3.97;;;2.73;;
50821;SDS011;36794;51.212;6.980;2023-03-16T04:46:34;6.73;;;3.47;;
50821;SDS011;36794;51.212;6.980;2023-03-16T04:49:00;11.20;;;3.40;;
50821;SDS011;36794;51.212;6.980;2023-03-16T04:51:26;8.93;;;3.50;;
50821;SDS011;36794;51.212;6.980;2023-03-16T04:53:52;10.00;;;3.50;;
50821;SDS011;36794;51.212;6.980;2023-03-16T04:56:19;6.40;;;3.60;;
50821;SDS011;36794;51.212;6.980;2023-03-16T04:58:46;6.80;;;3.67;;
50821;SDS011;36794;51.212;6.980;2023-03-16T05:01:12;8.53;;;3.53;;
50821;SDS011;36794;51.212;6.980;2023-03-16T05:03:39;7.30;;;3.80;;
50821;SDS011;36794;51.212;6.980;2023-03-16T05:06:05;7.07;;;3.90;;
50821;SDS011;36794;51.212;6.980;2023-03-16T05:08:31;7.87;;;3.80;;
50821;SDS011;36794;51.212;6.980;2023-03-16T05:10:57;7.37;;;4.23;;
50821;SDS011;36794;51.212;6.980;2023-03-16T05:13:23;7.03;;;4.10;;
50821;SDS011;36794;51.212;6.980;2023-03-16T05:15:49;6.87;;;3.93;;
50821;SDS011;36794;51.212;6.980;2023-03-16T05:18:17;9.00;;;4.27;;
50821;SDS011;36794;51.212;6.980;2023-03-16T05:20:43;8.77;;;3.90;;
50821;SDS011;36794;51.212;6.980;2023-03-16T05:23:09;7.97;;;4.10;;
50821;SDS011;36794;51.212;6.980;2023-03-16T05:25:35;7.37;;;4.17;;
50821;SDS011;36794;51.212;6.980;2023-03-16T05:28:03;5.70;;;3.93;;
50821;SDS011;36794;51.212;6.980;2023-03-16T05:30:29;8.07;;;4.17;;
50821;SDS011;36794;51.212;6.980;2023-03-16T05:32:55;9.17;;;3.90;;
50821;SDS011;36794;51.212;6.980;2023-03-16T05:35:22;8.67;;;3.90;;
50821;SDS011;36794;51.212;6.980;2023-03-16T05:37:48;7.53;;;3.97;;
50821;SDS011;36794;51.212;6.980;2023-03-16T05:40:14;6.00;;;4.03;;
50821;SDS011;36794;51.212;6.980;2023-03-16T05:42:44;7.53;;;3.90;;
50821;SDS011;36794;51.212;6.980;2023-03-16T05:45:11;8.63;;;3.97;;
50821;SDS011;36794;51.212;6.980;2023-03-16T05:47:37;6.77;;;4.10;;
50821;SDS011;36794;51.212;6.980;2023-03-16T05:50:03;7.63;;;4.03;;
50821;SDS011;36794;51.212;6.980;2023-03-16T05:52:30;8.63;;;4.30;;
50821;SDS011;36794;51.212;6.980;2023-03-16T05:54:56;10.50;;;4.20;;
50821;SDS011;36794;51.212;6.980;2023-03-16T05:57:21;8.70;;;4.13;;
50821;SDS011;36794;51.212;6.980;2023-03-16T05:59:47;7.03;;;4.00;;
50821;SDS011;36794;51.212;6.980;2023-03-16T06:02:14;6.87;;;3.77;;
50821;SDS011;36794;51.212;6.980;2023-03-16T06:04:40;7.10;;;3.60;;
50821;SDS011;36794;51.212;6.980;2023-03-16T06:07:06;7.43;;;4.33;;
50821;SDS011;36794;51.212;6.980;2023-03-16T06:09:32;7.13;;;4.20;;
50821;SDS011;36794;51.212;6.980;2023-03-16T06:11:58;10.43;;;3.90;;
50821;SDS011;36794;51.212;6.980;2023-03-16T06:14:24;7.37;;;4.10;;
50821;SDS011;36794;51.212;6.980;2023-03-16T06:16:50;8.20;;;4.20;;
50821;SDS011;36794;51.212;6.980;2023-03-16T06:19:16;7.07;;;4.10;;
50821;SDS011;36794;51.212;6.980;2023-03-16T06:21:42;7.73;;;4.30;;
50821;SDS011;36794;51.212;6.980;2023-03-16T06:24:07;7.60;;;4.17;;
50821;SDS011;36794;51.212;6.980;2023-03-16T06:26:34;10.57;;;3.87;;
50821;SDS011;36794;51.212;6.980;2023-03-16T06:29:00;6.60;;;3.73;;
50821;SDS011;36794;51.212;6.980;2023-03-16T06:31:26;8.47;;;3.83;;
50821;SDS011;36794;51.212;6.980;2023-03-16T06:33:52;9.73;;;4.33;;
50821;SDS011;36794;51.212;6.980;2023-03-16T06:36:18;10.00;;;4.47;;
50821;SDS011;36794;51.212;6.980;2023-03-16T06:38:45;6.73;;;4.17;;
50821;SDS011;36794;51.212;6.980;2023-03-16T06:41:11;6.67;;;4.30;;
50821;SDS011;36794;51.212;6.980;2023-03-16T06:43:37;6.07;;;3.57;;
50821;SDS011;36794;51.212;6.980;2023-03-16T06:46:03;8.90;;;4.27;;
50821;SDS011;36794;51.212;6.980;2023-03-16T06:48:29;12.33;;;4.20;;
50821;SDS011;36794;51.212;6.980;2023-03-16T06:50:55;8.03;;;3.70;;
50821;SDS011;36794;51.212;6.980;2023-03-16T06:53:21;23.17;;;4.20;;
50821;SDS011;36794;51.212;6.980;2023-03-16T06:55:47;11.97;;;3.77;;
50821;SDS011;36794;51.212;6.980;2023-03-16T06:58:13;8.27;;;3.57;;
50821;SDS011;36794;51.212;6.980;2023-03-16T07:00:39;6.33;;;3.53;;
50821;SDS011;36794;51.212;6.980;2023-03-16T07:03:06;6.53;;;3.37;;
50821;SDS011;36794;51.212;6.980;2023-03-16T07:05:32;5.33;;;3.23;;
50821;SDS011;36794;51.212;6.980;2023-03-16T07:07:58;5.13;;;3.67;;
50821;SDS011;36794;51.212;6.980;2023-03-16T07:10:24;8.67;;;3.73;;
50821;SDS011;36794;51.212;6.980;2023-03-16T07:12:50;4.80;;;3.20;;
50821;SDS011;36794;51.212;6.980;2023-03-16T07:15:16;6.87;;;3.37;;
50821;SDS011;36794;51.212;6.980;2023-03-16T07:17:42;12.53;;;3.83;;
50821;SDS011;36794;51.212;6.980;2023-03-16T07:20:09;4.63;;;3.27;;
50821;SDS011;36794;51.212;6.980;2023-03-16T07:22:36;7.33;;;3.43;;
50821;SDS011;36794;51.212;6.980;2023-03-16T07:25:03;6.27;;;3.60;;
50821;SDS011;36794;51.212;6.980;2023-03-16T07:27:29;6.13;;;3.77;;
50821;SDS011;36794;51.212;6.980;2023-03-16T07:29:55;6.03;;;4.03;;
50821;SDS011;36794;51.212;6.980;2023-03-16T07:32:21;6.77;;;3.77;;
50821;SDS011;36794;51.212;6.980;2023-03-16T07:34:48;8.97;;;3.73;;
50821;SDS011;36794;51.212;6.980;2023-03-16T07:37:14;8.10;;;3.70;;
50821;SDS011;36794;51.212;6.980;2023-03-16T07:39:40;7.23;;;4.27;;
50821;SDS011;36794;51.212;6.980;2023-03-16T07:42:06;9.10;;;5.33;;
50821;SDS011;36794;51.212;6.980;2023-03-16T07:44:32;8.37;;;4.80;;
50821;SDS011;36794;51.212;6.980;2023-03-16T07:46:58;9.73;;;4.20;;
50821;SDS011;36794;51.212;6.980;2023-03-16T07:49:24;24.23;;;4.57;;
50821;SDS011;36794;51.212;6.980;2023-03-16T07:51:50;7.70;;;4.00;;
50821;SDS011;36794;51.212;6.980;2023-03-16T07:54:16;7.20;;;3.57;;
50821;SDS011;36794;51.212;6.980;2023-03-16T07:56:42;7.17;;;4.10;;
50821;SDS011;36794;51.212;6.980;2023-03-16T07:59:08;8.00;;;3.97;;
50821;SDS011;36794;51.212;6.980;2023-03-16T08:01:34;5.67;;;4.17;;
50821;SDS011;36794;51.212;6.980;2023-03-16T08:04:00;5.83;;;3.93;;
50821;SDS011;36794;51.212;6.980;2023-03-16T08:06:26;7.33;;;3.70;;
50821;SDS011;36794;51.212;6.980;2023-03-16T08:08:52;7.07;;;4.00;;
50821;SDS011;36794;51.212;6.980;2023-03-16T08:11:18;7.27;;;3.63;;
50821;SDS011;36794;51.212;6.980;2023-03-16T08:13:50;7.80;;;3.73;;
50821;SDS011;36794;51.212;6.980;2023-03-16T08:16:25;5.37;;;3.60;;
50821;SDS011;36794;51.212;6.980;2023-03-16T08:18:51;8.60;;;3.63;;
50821;SDS011;36794;51.212;6.980;2023-03-16T08:21:18;6.90;;;3.87;;
50821;SDS011;36794;51.212;6.980;2023-03-16T08:23:44;11.57;;;4.00;;
50821;SDS011;36794;51.212;6.980;2023-03-16T08:26:13;6.67;;;3.90;;
50821;SDS011;36794;51.212;6.980;2023-03-16T08:28:41;8.03;;;4.30;;
50821;SDS011;36794;51.212;6.980;2023-03-16T08:31:09;7.93;;;4.13;;
50821;SDS011;36794;51.212;6.980;2023-03-16T08:33:36;9.27;;;3.83;;
50821;SDS011;36794;51.212;6.980;2023-03-16T08:36:04;5.67;;;3.63;;
50821;SDS011;36794;51.212;6.980;2023-03-16T08:38:30;7.20;;;3.67;;
50821;SDS011;36794;51.212;6.980;2023-03-16T08:40:57;7.77;;;4.17;;
50821;SDS011;36794;51.212;6.980;2023-03-16T08:43:24;6.30;;;3.63;;
50821;SDS011;36794;51.212;6.980;2023-03-16T08:45:51;6.93;;;3.90;;
50821;SDS011;36794;51.212;6.980;2023-03-16T08:48:17;5.97;;;3.70;;
50821;SDS011;36794;51.212;6.980;2023-03-16T08:50:44;6.13;;;3.97;;
50821;SDS011;36794;51.212;6.980;2023-03-16T08:53:10;7.33;;;3.73;;
50821;SDS011;36794;51.212;6.980;2023-03-16T08:55:37;7.13;;;4.17;;
50821;SDS011;36794;51.212;6.980;2023-03-16T08:58:05;8.27;;;4.10;;
50821;SDS011;36794;51.212;6.980;2023-03-16T09:00:31;6.03;;;4.20;;
50821;SDS011;36794;51.212;6.980;2023-03-16T09:02:57;8.77;;;4.23;;
50821;SDS011;36794;51.212;6.980;2023-03-16T09:05:25;7.17;;;4.07;;
50821;SDS011;36794;51.212;6.980;2023-03-16T09:07:51;7.80;;;4.43;;
50821;SDS011;36794;51.212;6.980;2023-03-16T09:10:18;7.80;;;4.20;;
50821;SDS011;36794;51.212;6.980;2023-03-16T09:12:44;9.33;;;4.67;;
50821;SDS011;36794;51.212;6.980;2023-03-16T09:15:10;9.33;;;4.27;;
50821;SDS011;36794;51.212;6.980;2023-03-16T09:17:38;7.20;;;3.93;;
50821;SDS011;36794;51.212;6.980;2023-03-16T09:20:05;7.57;;;4.17;;
50821;SDS011;36794;51.212;6.980;2023-03-16T09:22:33;6.13;;;3.93;;
50821;SDS011;36794;51.212;6.980;2023-03-16T09:25:00;7.10;;;4.67;;
50821;SDS011;36794;51.212;6.980;2023-03-16T09:27:26;6.03;;;4.23;;
50821;SDS011;36794;51.212;6.980;2023-03-16T09:29:52;8.50;;;4.30;;
50821;SDS011;36794;51.212;6.980;2023-03-16T09:32:20;10.37;;;4.77;;
50821;SDS011;36794;51.212;6.980;2023-03-16T09:34:46;8.10;;;4.43;;
50821;SDS011;36794;51.212;6.980;2023-03-16T09:37:12;15.17;;;6.73;;
50821;SDS011;36794;51.212;6.980;2023-03-16T09:39:38;12.57;;;7.20;;
50821;SDS011;36794;51.212;6.980;2023-03-16T09:44:53;12.80;;;8.40;;
50821;SDS011;36794;51.212;6.980;2023-03-16T09:47:22;12.00;;;7.17;;
50821;SDS011;36794;51.212;6.980;2023-03-16T09:49:50;10.77;;;7.40;;
50821;SDS011;36794;51.212;6.980;2023-03-16T09:59:50;12.60;;;7.67;;
50821;SDS011;36794;51.212;6.980;2023-03-16T10:02:39;11.30;;;6.70;;
50821;SDS011;36794;51.212;6.980;2023-03-16T10:07:44;8.47;;;5.50;;
50821;SDS011;36794;51.212;6.980;2023-03-16T10:12:40;8.03;;;5.17;;
50821;SDS011;36794;51.212;6.980;2023-03-16T10:15:11;7.77;;;4.43;;
50821;SDS011;36794;51.212;6.980;2023-03-16T10:20:10;6.23;;;4.63;;
50821;SDS011;36794;51.212;6.980;2023-03-16T10:22:41;7.87;;;4.37;;
50821;SDS011;36794;51.212;6.980;2023-03-16T10:25:11;9.37;;;4.20;;
50821;SDS011;36794;51.212;6.980;2023-03-16T10:27:42;6.17;;;4.20;;
50821;SDS011;36794;51.212;6.980;2023-03-16T10:32:43;11.97;;;4.30;;
50821;SDS011;36794;51.212;6.980;2023-03-16T10:37:52;7.77;;;4.07;;
50821;SDS011;36794;51.212;6.980;2023-03-16T10:40:18;9.43;;;4.10;;
50821;SDS011;36794;51.212;6.980;2023-03-16T10:42:44;9.73;;;4.20;;
50821;SDS011;36794;51.212;6.980;2023-03-16T10:45:28;6.77;;;3.90;;
50821;SDS011;36794;51.212;6.980;2023-03-16T10:48:17;8.10;;;3.97;;
50821;SDS011;36794;51.212;6.980;2023-03-16T10:50:47;7.03;;;4.20;;
50821;SDS011;36794;51.212;6.980;2023-03-16T10:53:25;7.47;;;4.20;;
50821;SDS011;36794;51.212;6.980;2023-03-16T10:55:55;8.27;;;3.83;;
50821;SDS011;36794;51.212;6.980;2023-03-16T10:58:23;7.17;;;3.80;;
50821;SDS011;36794;51.212;6.980;2023-03-16T11:00:50;6.00;;;3.63;;
50821;SDS011;36794;51.212;6.980;2023-03-16T11:05:47;7.23;;;3.70;;
50821;SDS011;36794;51.212;6.980;2023-03-16T11:08:14;7.37;;;3.63;;
50821;SDS011;36794;51.212;6.980;2023-03-16T11:10:46;6.60;;;3.53;;
50821;SDS011;36794;51.212;6.980;2023-03-16T11:13:19;10.87;;;4.30;;
50821;SDS011;36794;51.212;6.980;2023-03-16T11:18:34;5.70;;;3.50;;
50821;SDS011;36794;51.212;6.980;2023-03-16T11:24:02;8.80;;;3.00;;
50821;SDS011;36794;51.212;6.980;2023-03-16T11:26:33;6.50;;;3.17;;
50821;SDS011;36794;51.212;6.980;2023-03-16T11:29:19;6.77;;;3.53;;
50821;SDS011;36794;51.212;6.980;2023-03-16T11:31:50;5.30;;;3.00;;
50821;SDS011;36794;51.212;6.980;2023-03-16T11:34:21;10.63;;;3.63;;
50821;SDS011;36794;51.212;6.980;2023-03-16T11:36:52;10.53;;;3.53;;
50821;SDS011;36794;51.212;6.980;2023-03-16T11:50:15;9.17;;;2.90;;
50821;SDS011;36794;51.212;6.980;2023-03-16T11:58:02;5.40;;;2.30;;
50821;SDS011;36794;51.212;6.980;2023-03-16T12:03:51;5.80;;;2.50;;
50821;SDS011;36794;51.212;6.980;2023-03-16T12:11:33;6.33;;;2.60;;
50821;SDS011;36794;51.212;6.980;2023-03-16T12:14:07;6.00;;;2.40;;
50821;SDS011;36794;51.212;6.980;2023-03-16T12:16:41;7.50;;;2.23;;
50821;SDS011;36794;51.212;6.980;2023-03-16T12:19:13;6.80;;;2.30;;
50821;SDS011;36794;51.212;6.980;2023-03-16T12:21:41;4.03;;;2.23;;
50821;SDS011;36794;51.212;6.980;2023-03-16T12:24:15;7.83;;;2.80;;
50821;SDS011;36794;51.212;6.980;2023-03-16T12:26:43;5.03;;;2.28;;
50821;SDS011;36794;51.212;6.980;2023-03-16T12:37:08;4.23;;;2.10;;
50821;SDS011;36794;51.212;6.980;2023-03-16T12:39:58;4.67;;;2.10;;
50821;SDS011;36794;51.212;6.980;2023-03-16T12:45:25;3.90;;;2.07;;
50821;SDS011;36794;51.212;6.980;2023-03-16T12:47:59;4.07;;;2.10;;
50821;SDS011;36794;51.212;6.980;2023-03-16T12:52:54;6.77;;;1.87;;
50821;SDS011;36794;51.212;6.980;2023-03-16T12:55:24;3.73;;;1.97;;
50821;SDS011;36794;51.212;6.980;2023-03-16T12:57:57;6.17;;;2.27;;
50821;SDS011;36794;51.212;6.980;2023-03-16T13:00:31;3.57;;;2.00;;
50821;SDS011;36794;51.212;6.980;2023-03-16T13:02:59;10.23;;;1.93;;
50821;SDS011;36794;51.212;6.980;2023-03-16T13:05:35;4.60;;;2.50;;
50821;SDS011;36794;51.212;6.980;2023-03-16T13:08:09;4.40;;;1.90;;
50821;SDS011;36794;51.212;6.980;2023-03-16T13:10:36;5.00;;;1.90;;
50821;SDS011;36794;51.212;6.980;2023-03-16T13:13:12;8.17;;;1.77;;
50821;SDS011;36794;51.212;6.980;2023-03-16T13:15:39;5.27;;;2.10;;
50821;SDS011;36794;51.212;6.980;2023-03-16T13:25:58;4.63;;;2.37;;
50821;SDS011;36794;51.212;6.980;2023-03-16T13:28:30;4.10;;;1.73;;
50821;SDS011;36794;51.212;6.980;2023-03-16T13:30:56;3.63;;;1.30;;
50821;SDS011;36794;51.212;6.980;2023-03-16T13:33:23;4.67;;;1.73;;
50821;SDS011;36794;51.212;6.980;2023-03-16T13:35:50;5.03;;;1.53;;
50821;SDS011;36794;51.212;6.980;2023-03-16T13:38:17;5.60;;;1.97;;
50821;SDS011;36794;51.212;6.980;2023-03-16T13:40:45;5.00;;;1.90;;
50821;SDS011;36794;51.212;6.980;2023-03-16T13:43:15;4.70;;;2.27;;
50821;SDS011;36794;51.212;6.980;2023-03-16T13:45:41;5.03;;;1.57;;
50821;SDS011;36794;51.212;6.980;2023-03-16T13:48:11;7.90;;;1.60;;
50821;SDS011;36794;51.212;6.980;2023-03-16T13:50:37;6.77;;;1.83;;
50821;SDS011;36794;51.212;6.980;2023-03-16T13:53:16;5.27;;;1.57;;
50821;SDS011;36794;51.212;6.980;2023-03-16T13:55:44;4.43;;;1.50;;
50821;SDS011;36794;51.212;6.980;2023-03-16T13:58:25;5.00;;;1.23;;
50821;SDS011;36794;51.212;6.980;2023-03-16T14:00:56;5.50;;;1.50;;
50821;SDS011;36794;51.212;6.980;2023-03-16T14:03:28;5.17;;;1.40;;
50821;SDS011;36794;51.212;6.980;2023-03-16T14:05:56;4.93;;;1.37;;
50821;SDS011;36794;51.212;6.980;2023-03-16T14:08:22;3.17;;;1.30;;
50821;SDS011;36794;51.212;6.980;2023-03-16T14:10:49;3.67;;;1.20;;
50821;SDS011;36794;51.212;6.980;2023-03-16T14:16:06;6.47;;;1.60;;
50821;SDS011;36794;51.212;6.980;2023-03-16T14:18:38;3.73;;;1.30;;
50821;SDS011;36794;51.212;6.980;2023-03-16T14:21:15;4.80;;;1.20;;
50821;SDS011;36794;51.212;6.980;2023-03-16T14:23:46;7.90;;;1.63;;
50821;SDS011;36794;51.212;6.980;2023-03-16T14:26:13;4.83;;;1.23;;
50821;SDS011;36794;51.212;6.980;2023-03-16T14:28:40;12.47;;;1.57;;
50821;SDS011;36794;51.212;6.980;2023-03-16T14:31:18;2.07;;;0.90;;
50821;SDS011;36794;51.212;6.980;2023-03-16T14:33:44;3.67;;;1.20;;
50821;SDS011;36794;51.212;6.980;2023-03-16T14:36:14;3.70;;;1.17;;
50821;SDS011;36794;51.212;6.980;2023-03-16T14:38:42;7.27;;;1.00;;
50821;SDS011;36794;51.212;6.980;2023-03-16T14:43:59;5.47;;;1.20;;
50821;SDS011;36794;51.212;6.980;2023-03-16T14:46:33;2.90;;;1.00;;
50821;SDS011;36794;51.212;6.980;2023-03-16T14:49:06;2.83;;;1.17;;
50821;SDS011;36794;51.212;6.980;2023-03-16T14:51:36;3.73;;;1.13;;
50821;SDS011;36794;51.212;6.980;2023-03-16T14:54:08;2.97;;;1.03;;
50821;SDS011;36794;51.212;6.980;2023-03-16T14:56:35;2.33;;;1.00;;
50821;SDS011;36794;51.212;6.980;2023-03-16T14:59:01;2.33;;;1.07;;
50821;SDS011;36794;51.212;6.980;2023-03-16T15:01:27;4.60;;;1.00;;
50821;SDS011;36794;51.212;6.980;2023-03-16T15:03:53;3.80;;;0.90;;
50821;SDS011;36794;51.212;6.980;2023-03-16T15:06:19;4.43;;;0.90;;
50821;SDS011;36794;51.212;6.980;2023-03-16T15:08:45;5.50;;;1.43;;
50821;SDS011;36794;51.212;6.980;2023-03-16T15:11:12;14.13;;;2.23;;
50821;SDS011;36794;51.212;6.980;2023-03-16T15:13:45;3.10;;;0.90;;
50821;SDS011;36794;51.212;6.980;2023-03-16T15:16:11;5.30;;;1.03;;
50821;SDS011;36794;51.212;6.980;2023-03-16T15:18:38;3.60;;;0.90;;
50821;SDS011;36794;51.212;6.980;2023-03-16T15:21:15;1.63;;;0.70;;
50821;SDS011;36794;51.212;6.980;2023-03-16T15:23:42;3.83;;;0.83;;
50821;SDS011;36794;51.212;6.980;2023-03-16T15:26:10;2.50;;;0.90;;
50821;SDS011;36794;51.212;6.980;2023-03-16T15:28:36;5.87;;;1.53;;
50821;SDS011;36794;51.212;6.980;2023-03-16T15:31:03;4.40;;;0.87;;
50821;SDS011;36794;51.212;6.980;2023-03-16T15:33:29;2.20;;;0.80;;
50821;SDS011;36794;51.212;6.980;2023-03-16T15:35:56;4.23;;;0.87;;
50821;SDS011;36794;51.212;6.980;2023-03-16T15:38:23;3.60;;;1.00;;
50821;SDS011;36794;51.212;6.980;2023-03-16T15:40:50;4.33;;;1.00;;
50821;SDS011;36794;51.212;6.980;2023-03-16T15:43:17;3.20;;;1.00;;
50821;SDS011;36794;51.212;6.980;2023-03-16T15:45:44;3.00;;;1.10;;
50821;SDS011;36794;51.212;6.980;2023-03-16T15:48:11;5.70;;;1.10;;
50821;SDS011;36794;51.212;6.980;2023-03-16T15:50:38;3.33;;;0.90;;
50821;SDS011;36794;51.212;6.980;2023-03-16T15:53:47;2.83;;;1.00;;
50821;SDS011;36794;51.212;6.980;2023-03-16T15:55:55;2.93;;;0.97;;
50821;SDS011;36794;51.212;6.980;2023-03-16T15:58:23;2.73;;;1.00;;
50821;SDS011;36794;51.212;6.980;2023-03-16T16:00:51;2.23;;;0.80;;
50821;SDS011;36794;51.212;6.980;2023-03-16T16:03:19;3.33;;;0.90;;
50821;SDS011;36794;51.212;6.980;2023-03-16T16:05:46;4.00;;;1.30;;
50821;SDS011;36794;51.212;6.980;2023-03-16T16:08:12;4.27;;;1.10;;
50821;SDS011;36794;51.212;6.980;2023-03-16T16:10:38;7.37;;;1.17;;
50821;SDS011;36794;51.212;6.980;2023-03-16T16:13:04;3.40;;;1.27;;
50821;SDS011;36794;51.212;6.980;2023-03-16T16:15:31;4.13;;;1.10;;
50821;SDS011;36794;51.212;6.980;2023-03-16T16:17:59;4.17;;;1.07;;